sensor_id;sensor_type;location;lat;lon;timestamp;temperature;humidity
20732;DHT22;10527;52.124;5.196;2023-06-26T00:01:07;26.40;99.90
20732;DHT22;10527;52.124;5.196;2023-06-26T00:03:34;26.40;99.90
20732;DHT22;10527;52.124;5.196;2023-06-26T00:06:01;26.40;99.90
20732;DHT22;10527;52.124;5.196;2023-06-26T00:08:28;26.30;99.90
20732;DHT22;10527;52.124;5.196;2023-06-26T00:10:57;26.20;99.90
20732;DHT22;10527;52.124;5.196;2023-06-26T00:13:24;26.10;99.90
20732;DHT22;10527;52.124;5.196;2023-06-26T00:15:51;26.10;99.90
20732;DHT22;10527;52.124;5.196;2023-06-26T00:18:21;25.90;99.90
20732;DHT22;10527;52.124;5.196;2023-06-26T00:20:49;25.90;99.90
20732;DHT22;10527;52.124;5.196;2023-06-26T00:23:17;26.00;99.90
20732;DHT22;10527;52.124;5.196;2023-06-26T00:25:44;26.00;99.90
20732;DHT22;10527;52.124;5.196;2023-06-26T00:28:11;26.00;99.90
20732;DHT22;10527;52.124;5.196;2023-06-26T00:30:40;26.00;99.90
20732;DHT22;10527;52.124;5.196;2023-06-26T00:33:07;26.00;99.90
20732;DHT22;10527;52.124;5.196;2023-06-26T00:35:34;26.00;99.90
20732;DHT22;10527;52.124;5.196;2023-06-26T00:38:01;26.00;99.90
20732;DHT22;10527;52.124;5.196;2023-06-26T00:40:28;26.00;99.90
20732;DHT22;10527;52.124;5.196;2023-06-26T00:42:56;25.90;99.90
20732;DHT22;10527;52.124;5.196;2023-06-26T00:45:23;26.00;99.90
20732;DHT22;10527;52.124;5.196;2023-06-26T00:48:07;25.80;99.90
20732;DHT22;10527;52.124;5.196;2023-06-26T00:50:39;25.80;99.90
20732;DHT22;10527;52.124;5.196;2023-06-26T00:53:09;25.80;99.90
20732;DHT22;10527;52.124;5.196;2023-06-26T00:55:37;25.70;99.90
20732;DHT22;10527;52.124;5.196;2023-06-26T00:58:04;25.60;99.90
20732;DHT22;10527;52.124;5.196;2023-06-26T01:00:31;25.20;99.90
20732;DHT22;10527;52.124;5.196;2023-06-26T01:02:58;25.00;99.90
20732;DHT22;10527;52.124;5.196;2023-06-26T01:05:27;24.90;99.90
20732;DHT22;10527;52.124;5.196;2023-06-26T01:07:57;24.50;99.90
20732;DHT22;10527;52.124;5.196;2023-06-26T01:10:25;24.40;99.90
20732;DHT22;10527;52.124;5.196;2023-06-26T01:12:55;24.30;99.90
20732;DHT22;10527;52.124;5.196;2023-06-26T01:15:22;24.20;99.90
20732;DHT22;10527;52.124;5.196;2023-06-26T01:17:50;24.10;99.90
20732;DHT22;10527;52.124;5.196;2023-06-26T01:20:19;24.10;99.90
20732;DHT22;10527;52.124;5.196;2023-06-26T01:23:54;23.90;99.90
20732;DHT22;10527;52.124;5.196;2023-06-26T01:28:35;23.80;99.90
20732;DHT22;10527;52.124;5.196;2023-06-26T01:31:06;23.70;99.90
20732;DHT22;10527;52.124;5.196;2023-06-26T01:33:34;23.60;99.90
20732;DHT22;10527;52.124;5.196;2023-06-26T01:36:03;23.50;99.90
20732;DHT22;10527;52.124;5.196;2023-06-26T01:38:30;23.40;99.90
20732;DHT22;10527;52.124;5.196;2023-06-26T01:40:59;23.30;99.90
20732;DHT22;10527;52.124;5.196;2023-06-26T01:44:06;23.30;99.90
20732;DHT22;10527;52.124;5.196;2023-06-26T01:47:01;23.30;99.90
20732;DHT22;10527;52.124;5.196;2023-06-26T01:52:43;23.20;99.90
20732;DHT22;10527;52.124;5.196;2023-06-26T01:55:40;23.10;99.90
20732;DHT22;10527;52.124;5.196;2023-06-26T01:58:11;23.10;99.90
20732;DHT22;10527;52.124;5.196;2023-06-26T02:00:44;23.10;99.90
20732;DHT22;10527;52.124;5.196;2023-06-26T02:03:11;23.00;99.90
20732;DHT22;10527;52.124;5.196;2023-06-26T02:05:38;22.80;99.90
20732;DHT22;10527;52.124;5.196;2023-06-26T02:08:06;22.90;99.90
20732;DHT22;10527;52.124;5.196;2023-06-26T02:10:36;22.90;99.90
20732;DHT22;10527;52.124;5.196;2023-06-26T02:13:04;22.70;99.90
20732;DHT22;10527;52.124;5.196;2023-06-26T02:15:31;22.40;99.90
20732;DHT22;10527;52.124;5.196;2023-06-26T02:17:58;22.30;99.90
20732;DHT22;10527;52.124;5.196;2023-06-26T02:20:24;22.30;99.90
20732;DHT22;10527;52.124;5.196;2023-06-26T02:22:51;22.20;99.90
20732;DHT22;10527;52.124;5.196;2023-06-26T02:25:18;22.10;99.90
20732;DHT22;10527;52.124;5.196;2023-06-26T02:27:45;22.20;99.90
20732;DHT22;10527;52.124;5.196;2023-06-26T02:30:12;22.20;99.90
20732;DHT22;10527;52.124;5.196;2023-06-26T02:32:39;22.10;99.90
20732;DHT22;10527;52.124;5.196;2023-06-26T02:35:07;22.10;99.90
20732;DHT22;10527;52.124;5.196;2023-06-26T02:37:35;22.10;99.90
20732;DHT22;10527;52.124;5.196;2023-06-26T02:40:03;21.90;99.90
20732;DHT22;10527;52.124;5.196;2023-06-26T02:42:32;21.90;99.90
20732;DHT22;10527;52.124;5.196;2023-06-26T02:44:59;21.90;99.90
20732;DHT22;10527;52.124;5.196;2023-06-26T02:47:26;21.90;99.90
20732;DHT22;10527;52.124;5.196;2023-06-26T02:49:53;22.00;99.90
20732;DHT22;10527;52.124;5.196;2023-06-26T02:52:20;22.00;99.90
20732;DHT22;10527;52.124;5.196;2023-06-26T02:54:47;22.00;99.90
20732;DHT22;10527;52.124;5.196;2023-06-26T02:57:13;22.00;99.90
20732;DHT22;10527;52.124;5.196;2023-06-26T02:59:40;21.90;99.90
20732;DHT22;10527;52.124;5.196;2023-06-26T03:02:07;22.00;99.90
20732;DHT22;10527;52.124;5.196;2023-06-26T03:04:34;21.90;99.90
20732;DHT22;10527;52.124;5.196;2023-06-26T03:07:03;22.00;99.90
20732;DHT22;10527;52.124;5.196;2023-06-26T03:09:31;21.80;99.90
20732;DHT22;10527;52.124;5.196;2023-06-26T03:11:57;21.80;99.90
20732;DHT22;10527;52.124;5.196;2023-06-26T03:14:24;21.70;99.90
20732;DHT22;10527;52.124;5.196;2023-06-26T03:16:53;21.60;99.90
20732;DHT22;10527;52.124;5.196;2023-06-26T03:19:23;21.50;99.90
20732;DHT22;10527;52.124;5.196;2023-06-26T03:21:51;21.50;99.90
20732;DHT22;10527;52.124;5.196;2023-06-26T03:24:17;21.40;99.90
20732;DHT22;10527;52.124;5.196;2023-06-26T03:26:44;21.30;99.90
20732;DHT22;10527;52.124;5.196;2023-06-26T03:29:11;21.30;99.90
20732;DHT22;10527;52.124;5.196;2023-06-26T03:31:38;21.10;99.90
20732;DHT22;10527;52.124;5.196;2023-06-26T03:34:05;21.00;99.90
20732;DHT22;10527;52.124;5.196;2023-06-26T03:36:32;21.00;99.90
20732;DHT22;10527;52.124;5.196;2023-06-26T03:38:58;20.90;99.90
20732;DHT22;10527;52.124;5.196;2023-06-26T03:41:26;20.90;99.90
20732;DHT22;10527;52.124;5.196;2023-06-26T03:43:53;20.90;99.90
20732;DHT22;10527;52.124;5.196;2023-06-26T03:46:21;20.80;99.90
20732;DHT22;10527;52.124;5.196;2023-06-26T03:48:48;20.90;99.90
20732;DHT22;10527;52.124;5.196;2023-06-26T03:51:16;20.90;99.90
20732;DHT22;10527;52.124;5.196;2023-06-26T03:53:43;20.80;99.90
20732;DHT22;10527;52.124;5.196;2023-06-26T03:56:10;20.90;99.90
20732;DHT22;10527;52.124;5.196;2023-06-26T03:58:37;20.80;99.90
20732;DHT22;10527;52.124;5.196;2023-06-26T04:01:04;20.80;99.90
20732;DHT22;10527;52.124;5.196;2023-06-26T04:03:31;20.70;99.90
20732;DHT22;10527;52.124;5.196;2023-06-26T04:06:00;20.70;99.90
20732;DHT22;10527;52.124;5.196;2023-06-26T04:08:27;20.70;99.90
20732;DHT22;10527;52.124;5.196;2023-06-26T04:10:54;20.60;99.90
20732;DHT22;10527;52.124;5.196;2023-06-26T04:13:24;20.70;99.90
20732;DHT22;10527;52.124;5.196;2023-06-26T04:15:51;20.60;99.90
20732;DHT22;10527;52.124;5.196;2023-06-26T04:18:18;20.50;99.90
20732;DHT22;10527;52.124;5.196;2023-06-26T04:21:09;20.60;99.90
20732;DHT22;10527;52.124;5.196;2023-06-26T04:23:39;20.50;99.90
20732;DHT22;10527;52.124;5.196;2023-06-26T04:26:07;20.50;99.90
20732;DHT22;10527;52.124;5.196;2023-06-26T04:28:35;20.40;99.90
20732;DHT22;10527;52.124;5.196;2023-06-26T04:31:03;20.50;99.90
20732;DHT22;10527;52.124;5.196;2023-06-26T04:33:30;20.40;99.90
20732;DHT22;10527;52.124;5.196;2023-06-26T04:35:57;20.40;99.90
20732;DHT22;10527;52.124;5.196;2023-06-26T04:38:24;20.50;99.90
20732;DHT22;10527;52.124;5.196;2023-06-26T04:40:50;20.50;99.90
20732;DHT22;10527;52.124;5.196;2023-06-26T04:43:17;20.40;99.90
20732;DHT22;10527;52.124;5.196;2023-06-26T04:45:44;20.40;99.90
20732;DHT22;10527;52.124;5.196;2023-06-26T04:48:11;20.40;99.90
20732;DHT22;10527;52.124;5.196;2023-06-26T04:50:39;20.40;99.90
20732;DHT22;10527;52.124;5.196;2023-06-26T04:53:07;20.40;99.90
20732;DHT22;10527;52.124;5.196;2023-06-26T04:55:34;20.30;99.90
20732;DHT22;10527;52.124;5.196;2023-06-26T04:58:06;20.30;99.90
20732;DHT22;10527;52.124;5.196;2023-06-26T05:00:33;20.20;99.90
20732;DHT22;10527;52.124;5.196;2023-06-26T05:03:03;20.20;99.90
20732;DHT22;10527;52.124;5.196;2023-06-26T05:05:30;20.30;99.90
20732;DHT22;10527;52.124;5.196;2023-06-26T05:07:57;20.20;99.90
20732;DHT22;10527;52.124;5.196;2023-06-26T05:10:24;20.20;99.90
20732;DHT22;10527;52.124;5.196;2023-06-26T05:12:50;20.20;99.90
20732;DHT22;10527;52.124;5.196;2023-06-26T05:15:17;20.20;99.90
20732;DHT22;10527;52.124;5.196;2023-06-26T05:17:44;20.20;99.90
20732;DHT22;10527;52.124;5.196;2023-06-26T05:20:14;20.20;99.90
20732;DHT22;10527;52.124;5.196;2023-06-26T05:22:42;20.20;99.90
20732;DHT22;10527;52.124;5.196;2023-06-26T05:25:09;20.20;99.90
20732;DHT22;10527;52.124;5.196;2023-06-26T05:27:37;20.30;99.90
20732;DHT22;10527;52.124;5.196;2023-06-26T05:30:05;20.30;99.90
20732;DHT22;10527;52.124;5.196;2023-06-26T05:32:34;20.30;99.90
20732;DHT22;10527;52.124;5.196;2023-06-26T05:35:04;20.30;99.90
20732;DHT22;10527;52.124;5.196;2023-06-26T05:37:32;20.40;99.90
20732;DHT22;10527;52.124;5.196;2023-06-26T05:40:01;20.30;99.90
20732;DHT22;10527;52.124;5.196;2023-06-26T05:42:34;20.30;99.90
20732;DHT22;10527;52.124;5.196;2023-06-26T05:45:01;20.30;99.90
20732;DHT22;10527;52.124;5.196;2023-06-26T05:47:27;20.30;99.90
20732;DHT22;10527;52.124;5.196;2023-06-26T05:49:55;20.30;99.90
20732;DHT22;10527;52.124;5.196;2023-06-26T05:52:23;20.40;99.90
20732;DHT22;10527;52.124;5.196;2023-06-26T05:54:51;20.50;99.90
20732;DHT22;10527;52.124;5.196;2023-06-26T05:57:19;20.40;99.90
20732;DHT22;10527;52.124;5.196;2023-06-26T05:59:46;20.40;99.90
20732;DHT22;10527;52.124;5.196;2023-06-26T06:02:15;20.30;99.90
20732;DHT22;10527;52.124;5.196;2023-06-26T06:04:42;20.30;99.90
20732;DHT22;10527;52.124;5.196;2023-06-26T06:07:09;20.30;99.90
20732;DHT22;10527;52.124;5.196;2023-06-26T06:09:36;20.40;99.90
20732;DHT22;10527;52.124;5.196;2023-06-26T06:12:06;20.40;99.90
20732;DHT22;10527;52.124;5.196;2023-06-26T06:14:34;20.40;99.90
20732;DHT22;10527;52.124;5.196;2023-06-26T06:17:01;20.50;99.90
20732;DHT22;10527;52.124;5.196;2023-06-26T06:19:28;20.50;99.90
20732;DHT22;10527;52.124;5.196;2023-06-26T06:21:55;20.60;99.90
20732;DHT22;10527;52.124;5.196;2023-06-26T06:24:22;20.70;99.90
20732;DHT22;10527;52.124;5.196;2023-06-26T06:26:49;20.60;99.90
20732;DHT22;10527;52.124;5.196;2023-06-26T06:29:22;20.70;99.90
20732;DHT22;10527;52.124;5.196;2023-06-26T06:31:52;20.80;99.90
20732;DHT22;10527;52.124;5.196;2023-06-26T06:34:24;20.70;99.90
20732;DHT22;10527;52.124;5.196;2023-06-26T06:36:51;20.70;99.90
20732;DHT22;10527;52.124;5.196;2023-06-26T06:39:19;20.70;99.90
20732;DHT22;10527;52.124;5.196;2023-06-26T06:41:46;21.00;99.90
20732;DHT22;10527;52.124;5.196;2023-06-26T06:44:13;21.00;99.90
20732;DHT22;10527;52.124;5.196;2023-06-26T06:46:43;21.10;99.90
20732;DHT22;10527;52.124;5.196;2023-06-26T06:49:09;21.10;99.90
20732;DHT22;10527;52.124;5.196;2023-06-26T06:51:36;21.30;99.90
20732;DHT22;10527;52.124;5.196;2023-06-26T06:54:03;21.30;99.90
20732;DHT22;10527;52.124;5.196;2023-06-26T06:56:30;21.10;99.90
20732;DHT22;10527;52.124;5.196;2023-06-26T06:58:57;21.10;99.90
20732;DHT22;10527;52.124;5.196;2023-06-26T07:01:24;21.00;99.90
20732;DHT22;10527;52.124;5.196;2023-06-26T07:03:51;21.00;99.90
20732;DHT22;10527;52.124;5.196;2023-06-26T07:06:18;21.30;99.90
20732;DHT22;10527;52.124;5.196;2023-06-26T07:08:45;21.20;99.90
20732;DHT22;10527;52.124;5.196;2023-06-26T07:11:12;21.20;99.90
20732;DHT22;10527;52.124;5.196;2023-06-26T07:13:39;21.30;99.90
20732;DHT22;10527;52.124;5.196;2023-06-26T07:16:06;21.30;99.90
20732;DHT22;10527;52.124;5.196;2023-06-26T07:18:34;21.40;99.90
20732;DHT22;10527;52.124;5.196;2023-06-26T07:21:04;21.40;99.90
20732;DHT22;10527;52.124;5.196;2023-06-26T07:23:30;21.40;99.90
20732;DHT22;10527;52.124;5.196;2023-06-26T07:25:57;21.30;99.90
20732;DHT22;10527;52.124;5.196;2023-06-26T07:28:24;21.20;99.90
20732;DHT22;10527;52.124;5.196;2023-06-26T07:30:51;21.10;99.90
20732;DHT22;10527;52.124;5.196;2023-06-26T07:33:18;21.10;99.90
20732;DHT22;10527;52.124;5.196;2023-06-26T07:35:47;21.10;99.90
20732;DHT22;10527;52.124;5.196;2023-06-26T07:38:14;21.10;99.90
20732;DHT22;10527;52.124;5.196;2023-06-26T07:40:41;21.10;99.90
20732;DHT22;10527;52.124;5.196;2023-06-26T07:43:07;21.30;99.90
20732;DHT22;10527;52.124;5.196;2023-06-26T07:45:34;21.70;99.90
20732;DHT22;10527;52.124;5.196;2023-06-26T07:48:01;21.70;99.90
20732;DHT22;10527;52.124;5.196;2023-06-26T07:50:28;21.60;99.90
20732;DHT22;10527;52.124;5.196;2023-06-26T07:52:55;21.90;99.90
20732;DHT22;10527;52.124;5.196;2023-06-26T07:55:22;21.90;99.90
20732;DHT22;10527;52.124;5.196;2023-06-26T07:57:49;21.70;99.90
20732;DHT22;10527;52.124;5.196;2023-06-26T08:00:18;21.60;99.90
20732;DHT22;10527;52.124;5.196;2023-06-26T08:02:45;21.80;99.90
20732;DHT22;10527;52.124;5.196;2023-06-26T08:05:12;21.90;99.90
20732;DHT22;10527;52.124;5.196;2023-06-26T08:07:39;22.30;99.90
20732;DHT22;10527;52.124;5.196;2023-06-26T08:10:06;22.30;99.90
20732;DHT22;10527;52.124;5.196;2023-06-26T08:12:33;22.30;99.90
20732;DHT22;10527;52.124;5.196;2023-06-26T08:15:03;22.40;99.90
20732;DHT22;10527;52.124;5.196;2023-06-26T08:17:31;22.70;99.90
20732;DHT22;10527;52.124;5.196;2023-06-26T08:19:58;22.80;99.90
20732;DHT22;10527;52.124;5.196;2023-06-26T08:22:25;23.00;99.90
20732;DHT22;10527;52.124;5.196;2023-06-26T08:24:52;22.70;99.90
20732;DHT22;10527;52.124;5.196;2023-06-26T08:27:19;22.80;99.90
20732;DHT22;10527;52.124;5.196;2023-06-26T08:29:46;23.00;99.90
20732;DHT22;10527;52.124;5.196;2023-06-26T08:32:13;22.50;99.90
20732;DHT22;10527;52.124;5.196;2023-06-26T08:34:39;22.30;99.90
20732;DHT22;10527;52.124;5.196;2023-06-26T08:37:06;22.30;99.90
20732;DHT22;10527;52.124;5.196;2023-06-26T08:39:35;22.00;99.90
20732;DHT22;10527;52.124;5.196;2023-06-26T08:42:02;22.30;99.90
20732;DHT22;10527;52.124;5.196;2023-06-26T08:44:29;22.70;99.90
20732;DHT22;10527;52.124;5.196;2023-06-26T08:46:59;23.10;99.90
20732;DHT22;10527;52.124;5.196;2023-06-26T08:49:42;23.20;99.90
20732;DHT22;10527;52.124;5.196;2023-06-26T08:53:02;22.60;99.90
20732;DHT22;10527;52.124;5.196;2023-06-26T08:55:36;22.70;99.90
20732;DHT22;10527;52.124;5.196;2023-06-26T08:58:05;23.00;99.90
20732;DHT22;10527;52.124;5.196;2023-06-26T09:00:32;22.80;99.90
20732;DHT22;10527;52.124;5.196;2023-06-26T09:03:01;22.80;99.90
20732;DHT22;10527;52.124;5.196;2023-06-26T09:05:30;23.10;99.90
20732;DHT22;10527;52.124;5.196;2023-06-26T09:07:59;23.00;99.90
20732;DHT22;10527;52.124;5.196;2023-06-26T09:10:26;23.10;99.90
20732;DHT22;10527;52.124;5.196;2023-06-26T09:12:56;23.20;99.90
20732;DHT22;10527;52.124;5.196;2023-06-26T09:15:24;23.00;99.90
20732;DHT22;10527;52.124;5.196;2023-06-26T09:17:56;22.70;99.90
20732;DHT22;10527;52.124;5.196;2023-06-26T09:20:28;23.10;99.90
20732;DHT22;10527;52.124;5.196;2023-06-26T09:22:57;22.70;99.90
20732;DHT22;10527;52.124;5.196;2023-06-26T09:25:24;22.40;99.90
20732;DHT22;10527;52.124;5.196;2023-06-26T09:27:53;22.50;99.90
20732;DHT22;10527;52.124;5.196;2023-06-26T09:30:20;22.70;99.90
20732;DHT22;10527;52.124;5.196;2023-06-26T09:32:47;22.90;99.90
20732;DHT22;10527;52.124;5.196;2023-06-26T09:35:16;23.20;99.90
20732;DHT22;10527;52.124;5.196;2023-06-26T09:37:43;23.00;99.90
20732;DHT22;10527;52.124;5.196;2023-06-26T09:40:11;23.10;99.90
20732;DHT22;10527;52.124;5.196;2023-06-26T09:42:38;23.10;99.90
20732;DHT22;10527;52.124;5.196;2023-06-26T09:45:05;23.10;99.90
20732;DHT22;10527;52.124;5.196;2023-06-26T09:47:34;23.10;99.90
20732;DHT22;10527;52.124;5.196;2023-06-26T09:50:03;23.20;99.90
20732;DHT22;10527;52.124;5.196;2023-06-26T09:52:32;23.10;99.90
20732;DHT22;10527;52.124;5.196;2023-06-26T09:55:09;22.80;99.90
20732;DHT22;10527;52.124;5.196;2023-06-26T09:57:38;23.00;99.90
20732;DHT22;10527;52.124;5.196;2023-06-26T10:00:06;23.50;99.90
20732;DHT22;10527;52.124;5.196;2023-06-26T10:02:35;23.50;99.90
20732;DHT22;10527;52.124;5.196;2023-06-26T10:05:03;23.30;99.90
20732;DHT22;10527;52.124;5.196;2023-06-26T10:07:30;22.80;99.90
20732;DHT22;10527;52.124;5.196;2023-06-26T10:09:59;22.90;99.90
20732;DHT22;10527;52.124;5.196;2023-06-26T10:12:30;23.30;99.90
20732;DHT22;10527;52.124;5.196;2023-06-26T10:14:58;23.30;99.90
20732;DHT22;10527;52.124;5.196;2023-06-26T10:17:34;23.10;99.90
20732;DHT22;10527;52.124;5.196;2023-06-26T10:20:03;22.80;99.90
20732;DHT22;10527;52.124;5.196;2023-06-26T10:22:41;22.30;99.90
20732;DHT22;10527;52.124;5.196;2023-06-26T10:25:12;22.30;99.90
20732;DHT22;10527;52.124;5.196;2023-06-26T10:27:59;22.40;99.90
20732;DHT22;10527;52.124;5.196;2023-06-26T10:30:39;22.30;99.90
20732;DHT22;10527;52.124;5.196;2023-06-26T10:33:14;22.40;99.90
20732;DHT22;10527;52.124;5.196;2023-06-26T10:35:45;22.60;99.90
20732;DHT22;10527;52.124;5.196;2023-06-26T10:38:12;22.70;99.90
20732;DHT22;10527;52.124;5.196;2023-06-26T10:40:53;23.10;99.90
20732;DHT22;10527;52.124;5.196;2023-06-26T10:43:20;23.50;99.90
20732;DHT22;10527;52.124;5.196;2023-06-26T10:45:50;23.20;99.90
20732;DHT22;10527;52.124;5.196;2023-06-26T10:48:22;23.00;99.90
20732;DHT22;10527;52.124;5.196;2023-06-26T10:50:50;22.90;99.90
20732;DHT22;10527;52.124;5.196;2023-06-26T10:53:24;23.20;99.90
20732;DHT22;10527;52.124;5.196;2023-06-26T10:55:58;23.40;99.90
20732;DHT22;10527;52.124;5.196;2023-06-26T11:01:25;23.80;99.90
20732;DHT22;10527;52.124;5.196;2023-06-26T11:04:05;23.20;99.90
20732;DHT22;10527;52.124;5.196;2023-06-26T11:06:36;23.00;99.90
20732;DHT22;10527;52.124;5.196;2023-06-26T11:09:18;23.00;99.90
20732;DHT22;10527;52.124;5.196;2023-06-26T11:11:56;23.20;99.90
20732;DHT22;10527;52.124;5.196;2023-06-26T11:14:28;22.70;99.90
20732;DHT22;10527;52.124;5.196;2023-06-26T11:16:58;22.60;99.90
20732;DHT22;10527;52.124;5.196;2023-06-26T11:19:28;22.80;99.90
20732;DHT22;10527;52.124;5.196;2023-06-26T11:22:02;23.00;99.90
20732;DHT22;10527;52.124;5.196;2023-06-26T11:24:34;23.00;99.90
20732;DHT22;10527;52.124;5.196;2023-06-26T11:27:06;23.20;99.90
20732;DHT22;10527;52.124;5.196;2023-06-26T11:29:37;23.60;99.90
20732;DHT22;10527;52.124;5.196;2023-06-26T11:32:05;23.20;99.90
20732;DHT22;10527;52.124;5.196;2023-06-26T11:34:33;23.10;99.90
20732;DHT22;10527;52.124;5.196;2023-06-26T11:37:00;23.00;99.90
20732;DHT22;10527;52.124;5.196;2023-06-26T11:39:28;23.00;99.90
20732;DHT22;10527;52.124;5.196;2023-06-26T11:41:55;22.90;99.90
20732;DHT22;10527;52.124;5.196;2023-06-26T11:44:29;23.40;99.90
20732;DHT22;10527;52.124;5.196;2023-06-26T11:46:57;23.20;99.90
20732;DHT22;10527;52.124;5.196;2023-06-26T11:49:24;22.80;99.90
20732;DHT22;10527;52.124;5.196;2023-06-26T11:51:53;22.80;99.90
20732;DHT22;10527;52.124;5.196;2023-06-26T11:54:25;23.10;99.90
20732;DHT22;10527;52.124;5.196;2023-06-26T11:56:58;23.20;99.90
20732;DHT22;10527;52.124;5.196;2023-06-26T11:59:41;23.20;99.90
20732;DHT22;10527;52.124;5.196;2023-06-26T12:02:13;22.80;99.90
20732;DHT22;10527;52.124;5.196;2023-06-26T12:04:42;22.60;99.90
20732;DHT22;10527;52.124;5.196;2023-06-26T12:07:11;22.80;99.90
20732;DHT22;10527;52.124;5.196;2023-06-26T12:09:43;22.90;99.90
20732;DHT22;10527;52.124;5.196;2023-06-26T12:12:20;23.00;99.90
20732;DHT22;10527;52.124;5.196;2023-06-26T12:14:48;23.10;99.90
20732;DHT22;10527;52.124;5.196;2023-06-26T12:17:15;23.10;99.90
20732;DHT22;10527;52.124;5.196;2023-06-26T12:19:46;23.40;99.90
20732;DHT22;10527;52.124;5.196;2023-06-26T12:22:18;23.20;99.90
20732;DHT22;10527;52.124;5.196;2023-06-26T12:24:46;23.00;99.90
20732;DHT22;10527;52.124;5.196;2023-06-26T12:27:15;22.90;99.90
20732;DHT22;10527;52.124;5.196;2023-06-26T12:29:54;22.80;99.90
20732;DHT22;10527;52.124;5.196;2023-06-26T12:32:25;23.20;99.90
20732;DHT22;10527;52.124;5.196;2023-06-26T12:34:56;23.00;99.90
20732;DHT22;10527;52.124;5.196;2023-06-26T12:37:25;23.20;99.90
20732;DHT22;10527;52.124;5.196;2023-06-26T12:39:57;23.10;99.90
20732;DHT22;10527;52.124;5.196;2023-06-26T12:42:32;23.10;99.90
20732;DHT22;10527;52.124;5.196;2023-06-26T12:45:10;23.10;99.90
20732;DHT22;10527;52.124;5.196;2023-06-26T12:48:12;23.30;99.90
20732;DHT22;10527;52.124;5.196;2023-06-26T12:50:45;23.60;99.90
20732;DHT22;10527;52.124;5.196;2023-06-26T12:53:12;22.90;99.90
20732;DHT22;10527;52.124;5.196;2023-06-26T12:55:42;22.80;99.90
20732;DHT22;10527;52.124;5.196;2023-06-26T12:58:11;22.80;99.90
20732;DHT22;10527;52.124;5.196;2023-06-26T13:00:38;22.60;99.90
20732;DHT22;10527;52.124;5.196;2023-06-26T13:03:06;22.40;99.90
20732;DHT22;10527;52.124;5.196;2023-06-26T13:05:37;22.40;99.90
20732;DHT22;10527;52.124;5.196;2023-06-26T13:08:04;22.40;99.90
20732;DHT22;10527;52.124;5.196;2023-06-26T13:10:31;22.70;99.90
20732;DHT22;10527;52.124;5.196;2023-06-26T13:12:58;22.90;99.90
20732;DHT22;10527;52.124;5.196;2023-06-26T13:15:24;23.00;99.90
20732;DHT22;10527;52.124;5.196;2023-06-26T13:17:52;22.70;99.90
20732;DHT22;10527;52.124;5.196;2023-06-26T13:20:18;23.00;99.90
20732;DHT22;10527;52.124;5.196;2023-06-26T13:22:46;23.40;99.90
20732;DHT22;10527;52.124;5.196;2023-06-26T13:25:13;23.60;99.90
20732;DHT22;10527;52.124;5.196;2023-06-26T13:27:41;23.40;99.90
20732;DHT22;10527;52.124;5.196;2023-06-26T13:30:08;22.90;99.90
20732;DHT22;10527;52.124;5.196;2023-06-26T13:32:36;22.90;99.90
20732;DHT22;10527;52.124;5.196;2023-06-26T13:35:04;22.70;99.90
20732;DHT22;10527;52.124;5.196;2023-06-26T13:37:32;22.90;99.90
20732;DHT22;10527;52.124;5.196;2023-06-26T13:40:04;23.00;99.90
20732;DHT22;10527;52.124;5.196;2023-06-26T13:42:38;23.40;99.90
20732;DHT22;10527;52.124;5.196;2023-06-26T13:45:06;23.50;99.90
20732;DHT22;10527;52.124;5.196;2023-06-26T13:47:52;23.50;99.90
20732;DHT22;10527;52.124;5.196;2023-06-26T13:50:29;23.30;99.90
20732;DHT22;10527;52.124;5.196;2023-06-26T13:53:16;23.10;99.90
20732;DHT22;10527;52.124;5.196;2023-06-26T13:55:43;23.00;99.90
20732;DHT22;10527;52.124;5.196;2023-06-26T13:58:12;23.30;99.90
20732;DHT22;10527;52.124;5.196;2023-06-26T14:00:40;23.50;99.90
20732;DHT22;10527;52.124;5.196;2023-06-26T14:03:07;23.30;99.90
20732;DHT22;10527;52.124;5.196;2023-06-26T14:05:35;23.30;99.90
20732;DHT22;10527;52.124;5.196;2023-06-26T14:08:07;23.40;99.90
20732;DHT22;10527;52.124;5.196;2023-06-26T14:10:35;23.20;99.90
20732;DHT22;10527;52.124;5.196;2023-06-26T14:13:03;22.90;99.90
20732;DHT22;10527;52.124;5.196;2023-06-26T14:15:30;22.90;99.90
20732;DHT22;10527;52.124;5.196;2023-06-26T14:17:59;22.80;99.90
20732;DHT22;10527;52.124;5.196;2023-06-26T14:20:31;23.10;99.90
20732;DHT22;10527;52.124;5.196;2023-06-26T14:22:59;23.10;99.90
20732;DHT22;10527;52.124;5.196;2023-06-26T14:25:26;23.00;99.90
20732;DHT22;10527;52.124;5.196;2023-06-26T14:27:58;23.40;99.90
20732;DHT22;10527;52.124;5.196;2023-06-26T14:30:27;23.30;99.90
20732;DHT22;10527;52.124;5.196;2023-06-26T14:32:57;23.60;99.90
20732;DHT22;10527;52.124;5.196;2023-06-26T14:35:28;23.60;99.90
20732;DHT22;10527;52.124;5.196;2023-06-26T14:37:55;23.30;99.90
20732;DHT22;10527;52.124;5.196;2023-06-26T14:40:22;23.30;99.90
20732;DHT22;10527;52.124;5.196;2023-06-26T14:42:50;23.50;99.90
20732;DHT22;10527;52.124;5.196;2023-06-26T14:45:18;23.30;99.90
20732;DHT22;10527;52.124;5.196;2023-06-26T14:47:45;23.40;99.90
20732;DHT22;10527;52.124;5.196;2023-06-26T14:50:22;23.40;99.90
20732;DHT22;10527;52.124;5.196;2023-06-26T14:52:48;23.50;99.90
20732;DHT22;10527;52.124;5.196;2023-06-26T14:55:16;23.50;99.90
20732;DHT22;10527;52.124;5.196;2023-06-26T14:57:44;23.50;99.90
20732;DHT22;10527;52.124;5.196;2023-06-26T15:00:11;23.40;99.90
20732;DHT22;10527;52.124;5.196;2023-06-26T15:02:39;23.30;99.90
20732;DHT22;10527;52.124;5.196;2023-06-26T15:05:06;23.70;99.90
20732;DHT22;10527;52.124;5.196;2023-06-26T15:07:33;23.70;99.90
20732;DHT22;10527;52.124;5.196;2023-06-26T15:10:00;23.30;99.90
20732;DHT22;10527;52.124;5.196;2023-06-26T15:12:28;23.40;99.90
20732;DHT22;10527;52.124;5.196;2023-06-26T15:14:54;23.50;99.90
20732;DHT22;10527;52.124;5.196;2023-06-26T15:17:23;23.10;99.90
20732;DHT22;10527;52.124;5.196;2023-06-26T15:19:50;23.40;99.90
20732;DHT22;10527;52.124;5.196;2023-06-26T15:22:18;23.80;99.90
20732;DHT22;10527;52.124;5.196;2023-06-26T15:24:46;23.60;99.90
20732;DHT22;10527;52.124;5.196;2023-06-26T15:27:13;23.40;99.90
20732;DHT22;10527;52.124;5.196;2023-06-26T15:29:41;22.90;99.90
20732;DHT22;10527;52.124;5.196;2023-06-26T15:32:08;23.00;99.90
20732;DHT22;10527;52.124;5.196;2023-06-26T15:34:36;23.30;99.90
20732;DHT22;10527;52.124;5.196;2023-06-26T15:37:03;23.30;99.90
20732;DHT22;10527;52.124;5.196;2023-06-26T15:39:30;23.20;99.90
20732;DHT22;10527;52.124;5.196;2023-06-26T15:41:58;23.50;99.90
20732;DHT22;10527;52.124;5.196;2023-06-26T15:44:25;23.90;99.90
20732;DHT22;10527;52.124;5.196;2023-06-26T15:46:54;23.70;99.90
20732;DHT22;10527;52.124;5.196;2023-06-26T15:49:21;23.50;99.90
20732;DHT22;10527;52.124;5.196;2023-06-26T15:51:48;23.40;99.90